ASN logo
 
Statuts: Information is only available from news, social media or unofficial sources
Date:samedi 2 avril 2022
Heure:11:19
Type/Sous-type:Silhouette image of generic LJ75 model; specific model in this crash may look slightly different
Learjet 75
Compagnie:Georgia Crown Distributing Co.
Immatriculation: N877W
Numéro de série: 45-496
Année de Fabrication: 2014
Moteurs: 2 Honeywell TFE731-40BR-1
Equipage:victimes: 0 / à bord:
Passagers:victimes: 0 / à bord:
Total:victimes: 0 / à bord: 4
Dégats de l'appareil: Substantiels
Conséquences: Written off (damaged beyond repair)
Lieu de l'accident:Morristown Municipal Airport, NJ (MMU) (   Etats-Unis d'Amérique)
Phase de vol: A l'atterrissage (LDG)
Nature:Inconnu
Aéroport de départ:Atlanta-Fulton County Airport, GA (FTY/KFTY), Etats-Unis d'Amérique
Aéroport de destination:Morristown Municipal Airport, NJ (MMU/KMMU), Etats-Unis d'Amérique
Détails:
A Learjet 75 suffered a runway excursion after landing on runway 23 at Morristown Municipal Airport, NJ (MMU/KMMU).
The wing section separated from the fuselage after the aircraft went off the right side of the runway.

Sources:
» eu.northjersey.com
» ADS-B Exchange flight track

METAR Weather report:
15:00 UTC / 11:00 local time:
KMMU 021500Z 36009G14KT 10SM FEW250 06/M04 A3012

15:25 UTC / 11:25 local time:
KMMU 021525Z 32006G14KT 10SM FEW250 07/M05 A3011

15:45 UTC / 11:45 local time:
KMMU 021545Z 33007KT 10SM FEW250 07/M04 A3010


Photos

Add your photo of this accident or aircraft

Video, social media

Plan
This map shows the airport of departure and the intended destination of the flight. The line is connecting ADS-B datapoints from AX.
La distance entre Atlanta-Fulton County Airport, GA et Morristown Municipal Airport, NJ est de 1178 km (736 miles).
Accident location: Approximate; accuracy within a few kilometers.

Les informations ci-dessus ne représentent pas l'opinion de la 'Flight Safety Foundation' ou de 'Aviation Safety Network' sur les causes de l'accident. Ces informations prélimimaires sont basées sur les faits tel qu'ils sont connus à ce jour.
languages: languages

Share

GAPPRE
GAPPRE
Global Action Plan for the Prevention of Runway Excursions (GAPPRE): recommendations and guidance material to prevent runway excursions
Learjet 45

  • 642+ built
  • 10ème loss
» safety profile

The Aviation Safety Network is an exclusive service provided by:
Quick Links:

CONNECT WITH US: FSF Facebook FSF Twitter FSF Youtube FSF LinkedIn FSF Instagram

©2022 Flight Safety Foundation

701 N. Fairfax St., Ste. 250
Alexandria, Virginia 22314
www.FlightSafety.org